This is the latest recevied weather packets stored in our database for station/object KLEMETTI. If no packets are shown the sender has not sent any weather packets the latest 10 day(s).
| Time | Temp. | Humidity | Pressure | Rain* | Wind** | Luminosity | Snow |
|---|---|---|---|---|---|---|---|
| 1777867636 | 1.11° C | 85% | 1005.9 hPa | 0 mm | - | - | - |
| 1777866436 | 0.56° C | 89% | 1005.9 hPa | 0 mm | - | - | - |
| 1777865236 | -0.56° C | 91% | 1006.2 hPa | 0 mm | - | - | - |
| 1777864036 | -0.56° C | 93% | 1006.5 hPa | 0 mm | - | - | - |
| 1777846035 | 3.33° C | 81% | 1008 hPa | 0 mm | - | - | - |
| 1777844834 | 3.33° C | 82% | 1008.2 hPa | 0 mm | - | - | - |
| 1777843634 | 3.33° C | 81% | 1008.3 hPa | 0 mm | - | - | - |
| 1777842435 | 3.89° C | 78% | 1008.4 hPa | 0 mm | - | - | - |
| 1777841235 | 3.89° C | 78% | 1008.5 hPa | 0 mm | - | - | - |
| 1777840034 | 4.44° C | 74% | 1008.6 hPa | 0 mm | - | - | - |
| 1777838834 | 4.44° C | 71% | 1008.8 hPa | 0 mm | - | - | - |
| 1777837634 | 4.44° C | 68% | 1008.9 hPa | 0 mm | - | - | - |
| 1777835234 | 5.56° C | 61% | 1008.8 hPa | 0 mm | - | - | - |
| 1777832833 | 6.11° C | 57% | 1008.7 hPa | 0 mm | - | - | - |
| 1777831634 | 6.67° C | 55% | 1008.6 hPa | 0 mm | - | - | - |
| 1777829240 | 6.67° C | 54% | 1008.4 hPa | 0 mm | - | - | - |
| 1777825632 | 7.78° C | 53% | 1008.7 hPa | 0 mm | - | - | - |
| 1777824434 | 7.78° C | 48% | 1008.8 hPa | 0 mm | - | - | - |
| 1777823233 | 8.33° C | 44% | 1008.9 hPa | 0 mm | - | - | - |
| 1777822033 | 8.33° C | 44% | 1008.9 hPa | 0 mm | - | - | - |
| 1777819633 | 8.33° C | 51% | 1009 hPa | 0 mm | - | - | - |
| 1777814833 | 8.33° C | 48% | 1009.3 hPa | 0 mm | - | - | - |
| 1777811233 | 7.78° C | 45% | 1009.4 hPa | 0 mm | - | - | - |
| 1777810032 | 7.78° C | 46% | 1009.4 hPa | 0 mm | - | - | - |
| 1777808833 | 8.33° C | 47% | 1009.4 hPa | 0 mm | - | - | - |
* Rain latest hour (hover to see other rain measurements)
** Current wind speed in m/s (hover to see current wind gust speed)